createdAt,value
2019-04-01T00:01:29.303Z,99.90
2019-04-01T00:04:53.321Z,99.90
2019-04-01T00:08:17.851Z,99.90
2019-04-01T00:11:42.213Z,99.90
2019-04-01T00:15:07.145Z,99.90
2019-04-01T00:18:31.072Z,99.90
2019-04-01T00:21:54.793Z,99.90
2019-04-01T00:25:18.711Z,99.90
2019-04-01T00:28:42.631Z,99.90
2019-04-01T00:32:06.484Z,99.90
2019-04-01T00:35:30.498Z,99.90
2019-04-01T00:38:54.244Z,99.90
2019-04-01T00:42:22.059Z,99.90
2019-04-01T00:45:47.427Z,99.90
2019-04-01T00:49:11.313Z,99.90
2019-04-01T00:52:35.191Z,99.90
2019-04-01T00:55:59.179Z,99.90
2019-04-01T00:59:23.083Z,99.90
2019-04-01T01:02:46.974Z,99.90
2019-04-01T01:06:10.889Z,99.90
2019-04-01T01:09:34.765Z,99.90
2019-04-01T01:12:58.610Z,99.90
2019-04-01T01:16:22.728Z,99.90
2019-04-01T01:19:47.158Z,99.90
2019-04-01T01:23:10.962Z,99.90
2019-04-01T01:26:34.851Z,99.90
2019-04-01T01:29:58.562Z,99.90
2019-04-01T01:33:22.401Z,99.90
2019-04-01T01:36:46.298Z,99.90
2019-04-01T01:40:10.226Z,99.90
2019-04-01T01:43:34.021Z,99.90
2019-04-01T01:46:57.932Z,99.90
2019-04-01T01:50:21.635Z,99.90
2019-04-01T01:53:45.586Z,99.90
2019-04-01T01:57:09.326Z,99.90
2019-04-01T02:00:34.136Z,99.90
2019-04-01T02:03:58.112Z,99.90
2019-04-01T02:07:22.149Z,99.90
2019-04-01T02:10:45.910Z,99.90
2019-04-01T02:14:09.746Z,99.90
2019-04-01T02:17:33.547Z,99.90
2019-04-01T02:20:57.426Z,99.90
2019-04-01T02:24:21.252Z,99.90
2019-04-01T02:27:45.014Z,99.90
2019-04-01T02:31:08.900Z,99.90
2019-04-01T02:34:32.692Z,99.90
2019-04-01T02:37:56.344Z,99.90
2019-04-01T02:41:20.082Z,99.90
2019-04-01T02:44:43.795Z,99.90
2019-04-01T02:48:07.682Z,99.90
2019-04-01T02:51:31.663Z,99.90
2019-04-01T02:54:55.518Z,99.90
2019-04-01T02:58:19.499Z,99.90
2019-04-01T03:01:43.584Z,99.90
2019-04-01T03:05:07.377Z,99.90
2019-04-01T03:08:31.180Z,99.90
2019-04-01T03:11:55.050Z,99.90
2019-04-01T03:15:18.938Z,99.90
2019-04-01T03:18:42.794Z,99.90
2019-04-01T03:22:06.762Z,99.90
2019-04-01T03:25:30.527Z,99.90
2019-04-01T03:28:54.362Z,99.90
2019-04-01T03:32:18.203Z,99.90
2019-04-01T03:35:42.076Z,99.90
2019-04-01T03:39:06.653Z,99.90
2019-04-01T03:42:30.480Z,99.90
2019-04-01T03:45:54.858Z,99.90
2019-04-01T03:49:18.763Z,99.90
2019-04-01T03:52:42.587Z,99.90
2019-04-01T03:56:07.491Z,99.90
2019-04-01T03:59:31.236Z,99.90
2019-04-01T04:02:55.133Z,99.90
2019-04-01T04:06:18.862Z,99.90
2019-04-01T04:09:42.790Z,99.90
2019-04-01T04:13:06.708Z,99.90
2019-04-01T04:16:30.996Z,99.90
2019-04-01T04:19:55.311Z,99.90
2019-04-01T04:23:19.263Z,99.90
2019-04-01T04:26:43.970Z,99.90
2019-04-01T04:30:08.223Z,99.90
2019-04-01T04:33:32.170Z,99.90
2019-04-01T04:36:56.022Z,99.90
2019-04-01T04:40:20.574Z,99.90
2019-04-01T04:43:44.435Z,99.90
2019-04-01T04:47:08.377Z,99.90
2019-04-01T04:50:32.291Z,99.90
2019-04-01T04:53:56.147Z,99.90
2019-04-01T04:57:20.486Z,99.90
2019-04-01T05:00:44.519Z,99.90
2019-04-01T05:04:08.374Z,99.90
2019-04-01T05:07:32.349Z,99.90
2019-04-01T05:10:56.399Z,99.90
2019-04-01T05:14:21.202Z,99.90
2019-04-01T05:17:44.938Z,99.90
2019-04-01T05:21:08.749Z,99.90
2019-04-01T05:24:34.067Z,99.90
2019-04-01T05:28:01.058Z,99.90
2019-04-01T05:31:27.668Z,99.90
2019-04-01T05:34:54.671Z,99.90
2019-04-01T05:38:18.566Z,91.20
2019-04-01T05:41:42.581Z,70.80
2019-04-01T05:45:09.107Z,60.50
2019-04-01T05:48:32.863Z,55.70
2019-04-01T05:51:57.099Z,49.70
2019-04-01T05:55:20.977Z,46.20
2019-04-01T05:58:44.759Z,43.20
2019-04-01T06:02:08.604Z,41.30
2019-04-01T06:05:32.443Z,39.10
2019-04-01T06:08:56.581Z,38.10
2019-04-01T06:12:24.135Z,36.00
2019-04-01T06:15:48.266Z,34.40
2019-04-01T06:19:12.073Z,34.10
2019-04-01T06:22:37.827Z,31.60
2019-04-01T06:26:01.810Z,30.60
2019-04-01T06:29:25.630Z,31.30
2019-04-01T06:32:49.577Z,30.20
2019-04-01T06:36:13.535Z,29.90
2019-04-01T06:39:37.298Z,29.60
2019-04-01T06:43:01.276Z,30.10
2019-04-01T06:46:25.229Z,29.30
2019-04-01T06:49:49.066Z,29.80
2019-04-01T06:53:13.036Z,29.20
2019-04-01T06:56:37.250Z,27.40
2019-04-01T07:00:01.132Z,27.70
2019-04-01T07:03:25.623Z,28.30
2019-04-01T07:06:49.577Z,27.40
2019-04-01T07:10:13.471Z,27.10
2019-04-01T07:13:39.976Z,26.00
2019-04-01T07:17:02.719Z,25.90
2019-04-01T07:20:26.660Z,26.20
2019-04-01T07:23:51.031Z,26.90
2019-04-01T07:27:14.952Z,26.10
2019-04-01T07:30:41.612Z,25.10
2019-04-01T07:34:04.373Z,26.00
2019-04-01T07:37:28.151Z,25.80
2019-04-01T07:40:52.488Z,24.50
2019-04-01T07:44:16.705Z,25.40
2019-04-01T07:47:40.544Z,24.50
2019-04-01T07:51:07.093Z,24.60
2019-04-01T07:54:29.942Z,24.10
2019-04-01T07:57:53.751Z,22.80
2019-04-01T08:01:17.644Z,22.40
2019-04-01T08:04:41.549Z,23.50
2019-04-01T08:08:05.658Z,24.00
2019-04-01T08:11:29.527Z,23.50
2019-04-01T08:14:53.371Z,24.00
2019-04-01T08:18:17.229Z,23.80
2019-04-01T08:21:41.273Z,23.40
2019-04-01T08:25:06.961Z,24.20
2019-04-01T08:28:30.832Z,23.90
2019-04-01T08:31:54.717Z,23.40
2019-04-01T08:35:18.814Z,23.50
2019-04-01T08:38:42.688Z,23.80
2019-04-01T08:42:06.447Z,22.60
2019-04-01T08:45:30.476Z,22.20
2019-04-01T08:48:55.176Z,22.40
2019-04-01T08:52:21.266Z,23.70
2019-04-01T08:55:45.203Z,23.00
2019-04-01T08:59:09.049Z,25.30
2019-04-01T09:02:32.921Z,25.20
2019-04-01T09:05:56.774Z,27.20
2019-04-01T09:09:21.327Z,25.10
2019-04-01T09:12:45.908Z,26.80
2019-04-01T09:16:09.808Z,24.70
2019-04-01T09:19:33.556Z,23.80
2019-04-01T09:22:59.209Z,23.30
2019-04-01T09:26:23.051Z,23.50
2019-04-01T09:29:51.067Z,23.20
2019-04-01T09:33:14.916Z,21.70
2019-04-01T09:36:40.464Z,23.00
2019-04-01T09:40:06.640Z,23.80
2019-04-01T09:43:30.451Z,25.60
2019-04-01T09:46:54.207Z,25.30
2019-04-01T09:50:17.991Z,24.40
2019-04-01T09:53:41.750Z,24.30
2019-04-01T09:57:17.277Z,23.80
2019-04-01T10:00:31.285Z,25.80
2019-04-01T10:03:55.016Z,24.40
2019-04-01T10:07:18.831Z,24.20
2019-04-01T10:10:45.058Z,23.30
2019-04-01T10:14:08.944Z,23.90
2019-04-01T10:17:32.802Z,25.70
2019-04-01T10:20:57.146Z,24.20
2019-04-01T10:24:21.077Z,23.50
2019-04-01T10:27:45.021Z,24.40
2019-04-01T10:31:08.884Z,23.80
2019-04-01T10:34:34.252Z,23.50
2019-04-01T10:37:58.303Z,21.90
2019-04-01T10:41:22.044Z,22.20
2019-04-01T10:44:45.809Z,22.60
2019-04-01T10:48:09.758Z,21.60
2019-04-01T10:51:33.459Z,21.90
2019-04-01T10:54:57.274Z,22.30
2019-04-01T10:58:21.882Z,22.70
2019-04-01T11:01:45.654Z,22.10
2019-04-01T11:05:09.781Z,21.60
2019-04-01T11:08:33.625Z,21.90
2019-04-01T11:11:57.632Z,20.60
2019-04-01T11:15:22.216Z,21.70
2019-04-01T11:18:46.044Z,21.70
2019-04-01T11:22:09.885Z,21.30
2019-04-01T11:25:33.723Z,22.20
2019-04-01T11:28:57.727Z,22.50
2019-04-01T11:32:21.672Z,22.30
2019-04-01T11:35:46.012Z,21.90
2019-04-01T11:39:12.239Z,23.00
2019-04-01T11:42:36.220Z,22.60
2019-04-01T11:46:00.413Z,21.70
2019-04-01T11:49:24.241Z,22.00
2019-04-01T11:52:48.080Z,22.40
2019-04-01T11:56:11.805Z,22.20
2019-04-01T11:59:35.622Z,23.00
2019-04-01T12:02:59.536Z,23.50
2019-04-01T12:06:23.823Z,24.90
2019-04-01T12:09:47.651Z,24.50
2019-04-01T12:13:11.788Z,24.20
2019-04-01T12:16:35.670Z,25.20
2019-04-01T12:19:59.828Z,25.40
2019-04-01T12:23:23.679Z,24.80
2019-04-01T12:26:47.450Z,25.60
2019-04-01T12:30:11.352Z,27.00
2019-04-01T12:33:35.248Z,27.80
2019-04-01T12:36:59.142Z,28.80
2019-04-01T12:40:22.856Z,30.70
2019-04-01T12:43:46.789Z,29.40
2019-04-01T12:47:10.999Z,28.10
2019-04-01T12:50:34.861Z,28.90
2019-04-01T12:53:58.611Z,30.40
2019-04-01T12:57:22.549Z,29.70
2019-04-01T13:00:46.304Z,31.50
2019-04-01T13:04:10.119Z,31.80
2019-04-01T13:07:34.046Z,32.10
2019-04-01T13:10:57.834Z,31.10
2019-04-01T13:14:21.722Z,31.90
2019-04-01T13:17:45.629Z,33.00
2019-04-01T13:21:10.998Z,31.80
2019-04-01T13:24:34.959Z,33.20
2019-04-01T13:27:58.851Z,35.00
2019-04-01T13:31:23.928Z,31.20
2019-04-01T13:34:47.900Z,34.60
2019-04-01T13:38:11.845Z,36.30
2019-04-01T13:41:42.794Z,36.50
2019-04-01T13:45:07.226Z,35.90
2019-04-01T13:48:31.406Z,34.70
2019-04-01T13:51:55.194Z,36.20
2019-04-01T13:55:53.457Z,36.50
2019-04-01T13:59:17.620Z,35.90
2019-04-01T14:02:41.631Z,38.70
2019-04-01T14:06:05.538Z,38.00
2019-04-01T14:09:30.895Z,38.60
2019-04-01T14:12:55.006Z,40.60
2019-04-01T14:16:18.877Z,42.00
2019-04-01T14:19:42.659Z,45.50
2019-04-01T14:23:06.432Z,44.10
2019-04-01T14:26:30.182Z,44.40
2019-04-01T14:29:53.960Z,42.30
2019-04-01T14:33:17.806Z,42.70
2019-04-01T14:36:42.304Z,43.00
2019-04-01T14:40:08.569Z,43.20
2019-04-01T14:43:32.727Z,42.70
2019-04-01T14:46:56.923Z,42.60
2019-04-01T14:50:20.871Z,44.90
2019-04-01T14:53:44.700Z,45.90
2019-04-01T14:57:08.529Z,47.10
2019-04-01T15:00:32.513Z,47.50
2019-04-01T15:03:56.638Z,48.70
2019-04-01T15:07:20.689Z,47.50
2019-04-01T15:10:44.672Z,48.70
2019-04-01T15:14:08.994Z,49.00
2019-04-01T15:17:35.305Z,47.80
2019-04-01T15:20:58.394Z,48.40
2019-04-01T15:24:22.401Z,49.70
2019-04-01T15:27:46.267Z,48.70
2019-04-01T15:31:10.212Z,49.00
2019-04-01T15:34:34.286Z,50.20
2019-04-01T15:38:00.561Z,51.30
2019-04-01T15:41:26.757Z,51.40
2019-04-01T15:44:49.854Z,52.50
2019-04-01T15:48:13.757Z,52.90
2019-04-01T15:51:37.613Z,52.70
2019-04-01T15:55:02.403Z,53.00
2019-04-01T15:58:26.903Z,54.20
2019-04-01T16:01:50.818Z,53.70
2019-04-01T16:05:16.035Z,53.90
2019-04-01T16:08:41.819Z,54.30
2019-04-01T16:12:06.064Z,53.80
2019-04-01T16:15:32.025Z,53.70
2019-04-01T16:18:55.316Z,54.30
2019-04-01T16:22:19.158Z,54.40
2019-04-01T16:25:43.876Z,54.60
2019-04-01T16:29:07.622Z,54.20
2019-04-01T16:32:31.445Z,55.10
2019-04-01T16:35:55.315Z,54.30
2019-04-01T16:39:19.276Z,54.90
2019-04-01T16:42:43.168Z,55.30
2019-04-01T16:46:07.111Z,56.10
2019-04-01T16:49:30.923Z,56.30
2019-04-01T16:52:54.794Z,57.00
2019-04-01T16:56:18.641Z,57.50
2019-04-01T16:59:42.512Z,56.60
2019-04-01T17:03:06.330Z,57.80
2019-04-01T17:06:30.121Z,57.60
2019-04-01T17:09:58.226Z,57.50
2019-04-01T17:13:27.190Z,58.60
2019-04-01T17:16:51.478Z,58.20
2019-04-01T17:20:16.750Z,58.70
2019-04-01T17:23:42.181Z,59.40
2019-04-01T17:27:25.906Z,61.20
2019-04-01T17:30:50.150Z,61.20
2019-04-01T17:34:14.041Z,62.40
2019-04-01T17:37:38.089Z,63.10
2019-04-01T17:41:02.766Z,65.50
2019-04-01T17:44:26.651Z,66.50
2019-04-01T17:47:50.540Z,67.40
2019-04-01T17:51:14.412Z,68.90
2019-04-01T17:54:40.019Z,70.70
2019-04-01T17:58:04.674Z,73.80
2019-04-01T18:01:28.579Z,74.00
2019-04-01T18:04:52.402Z,76.40
2019-04-01T18:08:16.373Z,81.20
2019-04-01T18:11:40.461Z,80.40
2019-04-01T18:15:05.156Z,81.60
2019-04-01T18:18:29.245Z,83.00
2019-04-01T18:21:53.294Z,84.40
2019-04-01T18:25:18.609Z,88.70
2019-04-01T18:28:42.399Z,90.40
2019-04-01T18:32:06.208Z,92.20
2019-04-01T18:35:30.048Z,92.50
2019-04-01T18:38:53.953Z,93.30
2019-04-01T18:42:17.764Z,95.60
2019-04-01T18:45:41.717Z,96.20
2019-04-01T18:49:06.210Z,97.90
2019-04-01T18:52:30.035Z,98.00
2019-04-01T18:55:53.881Z,96.90
2019-04-01T18:59:17.692Z,96.60
2019-04-01T19:02:42.233Z,97.70
2019-04-01T19:06:09.182Z,96.30
2019-04-01T19:09:33.824Z,94.50
2019-04-01T19:13:05.655Z,95.50
2019-04-01T19:16:23.378Z,95.00
2019-04-01T19:19:48.790Z,95.90
2019-04-01T19:23:12.904Z,93.90
2019-04-01T19:26:36.704Z,95.80
2019-04-01T19:30:01.256Z,94.60
2019-04-01T19:33:25.089Z,90.80
2019-04-01T19:36:48.928Z,90.10
2019-04-01T19:40:14.220Z,90.50
2019-04-01T19:43:39.469Z,88.80
2019-04-01T19:47:03.352Z,87.00
2019-04-01T19:50:27.191Z,89.90
2019-04-01T19:53:51.006Z,89.00
2019-04-01T19:57:15.887Z,84.00
2019-04-01T20:00:39.996Z,82.30
2019-04-01T20:04:07.182Z,82.20
2019-04-01T20:07:31.209Z,80.90
2019-04-01T20:10:55.106Z,82.60
2019-04-01T20:14:18.997Z,79.00
2019-04-01T20:17:43.833Z,76.80
2019-04-01T20:21:07.997Z,77.50
2019-04-01T20:24:31.881Z,76.40
2019-04-01T20:27:55.729Z,75.90
2019-04-01T20:31:19.604Z,75.80
2019-04-01T20:34:56.093Z,74.70
2019-04-01T20:38:08.898Z,74.30
2019-04-01T20:41:32.673Z,72.10
2019-04-01T20:44:56.776Z,72.60
2019-04-01T20:48:20.649Z,69.00
2019-04-01T20:51:44.982Z,70.20
2019-04-01T20:55:09.111Z,66.00
2019-04-01T20:58:32.974Z,65.70
2019-04-01T21:01:56.887Z,65.70
2019-04-01T21:05:20.796Z,65.80
2019-04-01T21:08:44.902Z,63.70
2019-04-01T21:12:08.874Z,64.00
2019-04-01T21:15:32.754Z,62.60
2019-04-01T21:18:56.739Z,63.40
2019-04-01T21:22:20.726Z,62.10
2019-04-01T21:25:45.616Z,61.90
2019-04-01T21:29:10.418Z,62.40
2019-04-01T21:32:35.347Z,60.50
2019-04-01T21:35:59.216Z,58.90
2019-04-01T21:39:23.087Z,59.00
2019-04-01T21:42:47.586Z,58.30
2019-04-01T21:46:11.541Z,57.30
2019-04-01T21:49:36.797Z,56.00
2019-04-01T21:53:01.223Z,55.70
2019-04-01T21:56:25.917Z,56.30
2019-04-01T21:59:50.119Z,55.30
2019-04-01T22:03:14.147Z,55.60
2019-04-01T22:06:37.798Z,55.50
2019-04-01T22:10:02.412Z,55.80
2019-04-01T22:13:27.459Z,53.40
2019-04-01T22:16:51.599Z,54.00
2019-04-01T22:20:15.438Z,53.60
2019-04-01T22:23:39.346Z,54.20
2019-04-01T22:27:03.317Z,53.50
2019-04-01T22:30:27.121Z,54.50
2019-04-01T22:33:50.978Z,54.60
2019-04-01T22:37:26.387Z,54.10
2019-04-01T22:40:40.477Z,54.80
2019-04-01T22:44:04.464Z,54.20
2019-04-01T22:47:28.441Z,54.50
2019-04-01T22:50:52.391Z,53.60
2019-04-01T22:54:16.357Z,54.20
2019-04-01T22:57:40.023Z,54.50
2019-04-01T23:01:03.810Z,54.80
2019-04-01T23:04:27.563Z,55.10
2019-04-01T23:07:52.137Z,55.40
2019-04-01T23:11:16.223Z,55.60
2019-04-01T23:14:40.007Z,54.90
2019-04-01T23:18:06.237Z,55.00
2019-04-01T23:21:31.332Z,55.50
2019-04-01T23:24:57.248Z,55.60
2019-04-01T23:28:21.305Z,55.90
2019-04-01T23:31:45.148Z,56.20
2019-04-01T23:35:08.928Z,55.70
2019-04-01T23:38:32.843Z,56.00
2019-04-01T23:41:56.763Z,56.10
2019-04-01T23:45:21.108Z,55.30
2019-04-01T23:48:45.226Z,55.70
2019-04-01T23:52:08.967Z,55.20
2019-04-01T23:55:32.836Z,55.00
2019-04-01T23:58:56.909Z,55.40
